Time;durP1;ratioP1;P1;durP2;ratioP2;P2;SDS_P1;SDS_P2;PMS_P1;PMS_P2;Temp;Humidity;BMP_temperature;BMP_pressure;BME280_temperature;BME280_humidity;BME280_pressure;Samples;Min_cycle;Max_cycle;Signal;HPM_P1;HPM_P2
2022/02/01 00:02:18;;;;;;;57.53;19.30;;;2.80;99.90;;;;;;5003906;28;20060;-45
2022/02/01 00:41:29;;;;;;;64.20;19.73;;;2.50;99.90;;;;;;4986956;28;20358;-48
2022/02/01 00:43:55;;;;;;;53.72;19.95;;;2.60;99.90;;;;;;5011219;28;20038;-46
2022/02/01 00:46:20;;;;;;;57.33;19.77;;;2.60;99.90;;;;;;5010949;28;20038;-46
2022/02/01 00:48:46;;;;;;;51.92;17.70;;;2.60;99.90;;;;;;5012351;28;20034;-50
2022/02/01 00:51:12;;;;;;;61.65;20.00;;;2.60;99.90;;;;;;5003398;28;20554;-45
2022/02/01 00:53:42;;;;;;;53.10;19.95;;;2.70;99.90;;;;;;5012378;28;20026;-47
2022/02/01 00:56:08;;;;;;;58.38;18.60;;;2.70;99.90;;;;;;5002522;28;20030;-51
2022/02/01 00:58:34;;;;;;;52.78;18.73;;;2.70;99.90;;;;;;4994605;28;20480;-48
2022/02/01 01:01:00;;;;;;;48.25;16.45;;;2.80;99.90;;;;;;5004411;28;20122;-53
2022/02/01 01:03:25;;;;;;;48.08;15.82;;;2.80;99.90;;;;;;5007117;28;20022;-47
2022/02/01 01:05:53;;;;;;;43.40;13.85;;;2.90;99.90;;;;;;5002261;28;20117;-48
2022/02/01 01:08:20;;;;;;;33.40;12.35;;;2.90;99.90;;;;;;5011883;28;20034;-51
2022/02/01 01:10:46;;;;;;;32.83;11.32;;;3.00;99.90;;;;;;5002789;28;20026;-47
2022/02/01 01:15:47;;;;;;;31.02;10.52;;;3.10;99.90;;;;;;5002482;28;20030;-48
2022/02/01 01:53:43;;;;;;;23.90;4.45;;;3.10;99.90;;;;;;5009865;28;20152;-54
2022/02/01 01:56:09;;;;;;;18.80;4.03;;;3.10;99.90;;;;;;5008814;28;20050;-56
2022/02/01 01:58:34;;;;;;;17.27;3.97;;;3.10;99.90;;;;;;5010467;28;20029;-55
2022/02/01 02:03:28;;;;;;;24.38;3.72;;;3.10;99.90;;;;;;5010432;28;20014;-51
2022/02/01 02:05:54;;;;;;;22.15;4.10;;;3.00;99.90;;;;;;5009414;28;20474;-51
2022/02/01 02:08:20;;;;;;;25.50;4.00;;;3.00;99.90;;;;;;5010093;28;20040;-51
2022/02/01 02:11:07;;;;;;;24.58;3.20;;;3.00;99.90;;;;;;5001295;28;20097;-51
2022/02/01 02:16:23;;;;;;;22.38;3.08;;;2.90;99.90;;;;;;5008741;28;20092;-46
2022/02/01 02:18:50;;;;;;;17.30;2.90;;;3.00;99.90;;;;;;5010332;28;20096;-48
2022/02/01 02:21:18;;;;;;;23.35;3.63;;;2.90;99.90;;;;;;5009166;28;20025;-45
2022/02/01 02:23:45;;;;;;;24.92;3.55;;;2.90;99.90;;;;;;5010181;28;20030;-48
2022/02/01 02:26:17;;;;;;;32.00;4.18;;;2.80;99.90;;;;;;4991295;28;20032;-58
2022/02/01 02:28:44;;;;;;;30.63;4.10;;;2.90;99.90;;;;;;5010239;28;20030;-48
2022/02/01 02:31:10;;;;;;;41.55;4.50;;;2.90;99.90;;;;;;5001022;28;20028;-54
2022/02/01 02:33:36;;;;;;;26.65;3.50;;;2.90;99.90;;;;;;5010766;28;20057;-46
2022/02/01 02:36:08;;;;;;;24.20;2.95;;;2.90;99.90;;;;;;5007796;28;20559;-45
2022/02/01 02:38:40;;;;;;;;;;;2.90;99.90;;;;;;5010298;28;20307;-45
2022/02/01 02:46:26;;;;;;;21.92;3.92;;;2.90;99.90;;;;;;4993512;28;20052;-45
2022/02/01 02:48:53;;;;;;;23.00;3.42;;;3.00;99.90;;;;;;5010185;28;20022;-45
2022/02/01 02:51:19;;;;;;;25.90;3.95;;;3.00;99.90;;;;;;5003221;28;20030;-45
2022/02/01 02:53:45;;;;;;;23.75;3.08;;;2.90;99.90;;;;;;5007884;28;20514;-49
2022/02/01 02:56:11;;;;;;;22.63;3.35;;;3.00;99.90;;;;;;4999522;28;20026;-49
2022/02/01 02:58:37;;;;;;;28.55;3.97;;;3.00;99.90;;;;;;5008470;28;20484;-49
2022/02/01 03:01:03;;;;;;;23.98;2.97;;;3.00;99.90;;;;;;5007741;28;20022;-49
2022/02/01 03:03:29;;;;;;;24.38;3.45;;;3.00;99.90;;;;;;5009519;28;20172;-49
2022/02/01 03:05:54;;;;;;;34.25;3.45;;;3.10;99.90;;;;;;5000324;28;20113;-47
2022/02/01 03:08:22;;;;;;;22.80;3.00;;;3.10;99.90;;;;;;5009575;28;20440;-48
2022/02/01 03:10:48;;;;;;;29.15;3.45;;;3.10;99.90;;;;;;5009555;28;20041;-48
2022/02/01 03:13:26;;;;;;;26.95;4.03;;;3.10;99.90;;;;;;5003059;28;20030;-45
2022/02/01 03:15:59;;;;;;;27.00;3.40;;;3.10;99.90;;;;;;4998513;28;20034;-46
2022/02/01 03:21:09;;;;;;;22.58;3.65;;;3.10;99.90;;;;;;5005454;28;20173;-52
2022/02/01 03:23:35;;;;;;;27.15;3.00;;;3.10;99.90;;;;;;5006543;28;20535;-46
2022/02/01 03:26:01;;;;;;;25.98;3.05;;;3.10;99.90;;;;;;4987453;28;20037;-48
2022/02/01 03:28:26;;;;;;;30.13;4.47;;;3.10;99.90;;;;;;5004635;28;20038;-49
2022/02/01 03:30:52;;;;;;;25.77;4.45;;;3.10;99.90;;;;;;5004813;28;20036;-51
2022/02/01 03:33:17;;;;;;;36.83;4.28;;;3.10;99.90;;;;;;5006441;28;20476;-49
2022/02/01 03:35:43;;;;;;;36.13;3.83;;;3.00;99.90;;;;;;4999900;28;20108;-46
2022/02/01 03:38:09;;;;;;;23.20;3.55;;;3.10;99.90;;;;;;5010383;28;20451;-48
2022/02/01 03:40:34;;;;;;;18.95;3.25;;;3.00;99.90;;;;;;5008767;28;20022;-47
2022/02/01 03:43:00;;;;;;;20.42;3.53;;;3.00;99.90;;;;;;5009797;28;20114;-53
2022/02/01 03:45:26;;;;;;;28.20;3.20;;;3.00;99.90;;;;;;5000570;28;20038;-50
2022/02/01 03:47:51;;;;;;;29.00;3.70;;;3.00;99.90;;;;;;5008176;28;20022;-50
2022/02/01 03:50:17;;;;;;;26.88;3.85;;;3.00;99.90;;;;;;5002058;28;20080;-54
2022/02/01 03:52:43;;;;;;;25.20;4.28;;;3.00;99.90;;;;;;5006740;28;20419;-49
2022/02/01 03:55:08;;;;;;;30.35;4.18;;;3.00;99.90;;;;;;5007879;28;20058;-49
2022/02/01 03:57:34;;;;;;;31.80;3.95;;;3.00;99.90;;;;;;5008638;28;20061;-50
2022/02/01 03:59:59;;;;;;;33.95;5.10;;;3.00;99.90;;;;;;5004909;28;20030;-49
2022/02/01 04:02:25;;;;;;;30.60;4.05;;;3.00;99.90;;;;;;5004112;28;20022;-52
2022/02/01 04:04:53;;;;;;;29.20;3.83;;;3.10;99.90;;;;;;5006275;28;20092;-49
2022/02/01 04:07:21;;;;;;;34.53;4.90;;;3.00;99.90;;;;;;5002966;28;20061;-47
2022/02/01 04:09:49;;;;;;;38.10;4.32;;;3.00;99.90;;;;;;5006952;28;20121;-50
2022/02/01 04:12:15;;;;;;;40.80;4.32;;;3.10;99.90;;;;;;5002558;28;20018;-49
2022/02/01 04:14:41;;;;;;;27.05;3.58;;;3.10;99.90;;;;;;5006668;28;20436;-50
2022/02/01 04:17:09;;;;;;;32.00;3.65;;;3.10;99.90;;;;;;5001047;28;20025;-49
2022/02/01 04:19:36;;;;;;;32.53;4.78;;;3.10;99.90;;;;;;5011396;28;20417;-52
2022/02/01 04:22:03;;;;;;;33.38;3.85;;;3.10;99.90;;;;;;5004749;28;20097;-51
2022/02/01 04:24:41;;;;;;;30.77;4.50;;;3.10;99.90;;;;;;5011474;28;20444;-49
2022/02/01 04:27:12;;;;;;;35.35;4.63;;;3.10;99.90;;;;;;5004420;28;20391;-53
2022/02/01 04:29:42;;;;;;;25.58;3.45;;;3.10;99.90;;;;;;5011214;28;20442;-48
2022/02/01 04:32:08;;;;;;;31.20;4.63;;;3.10;99.90;;;;;;5012188;28;20044;-49
2022/02/01 04:34:34;;;;;;;28.25;3.95;;;3.20;99.90;;;;;;5010945;28;20063;-49
2022/02/01 04:36:59;;;;;;;32.50;3.72;;;3.20;99.90;;;;;;5003338;28;20048;-48
2022/02/01 04:39:25;;;;;;;25.08;3.55;;;3.20;99.90;;;;;;4992646;28;20163;-49
2022/02/01 04:41:50;;;;;;;26.15;4.07;;;3.20;99.90;;;;;;5003977;28;20150;-50
2022/02/01 04:44:16;;;;;;;23.52;4.20;;;3.20;99.90;;;;;;5005594;28;20030;-49
2022/02/01 04:46:42;;;;;;;40.10;4.15;;;3.20;99.90;;;;;;5008497;28;20487;-51
2022/02/01 04:49:10;;;;;;;38.55;4.25;;;3.20;99.90;;;;;;5010891;28;20030;-49
2022/02/01 04:51:36;;;;;;;29.13;3.53;;;3.20;99.90;;;;;;5011508;28;20433;-48
2022/02/01 04:54:01;;;;;;;28.30;3.47;;;3.20;99.90;;;;;;5008033;28;20036;-48
2022/02/01 04:56:27;;;;;;;32.47;4.10;;;3.20;99.90;;;;;;4999069;28;20041;-49
2022/02/01 04:58:53;;;;;;;32.33;4.10;;;3.20;99.90;;;;;;5007281;28;20030;-51
2022/02/01 05:01:24;;;;;;;26.83;3.58;;;3.20;99.90;;;;;;5005575;28;20014;-53
2022/02/01 05:03:50;;;;;;;40.28;4.35;;;3.20;99.90;;;;;;5008217;28;20065;-50
2022/02/01 05:06:16;;;;;;;26.45;3.50;;;3.10;99.90;;;;;;5004477;28;20117;-52
2022/02/01 05:08:43;;;;;;;21.00;3.47;;;3.10;99.90;;;;;;5010715;28;20153;-49
2022/02/01 05:11:09;;;;;;;31.65;3.95;;;3.10;99.90;;;;;;5011487;28;20109;-51
2022/02/01 05:14:01;;;;;;;26.75;3.15;;;3.10;99.90;;;;;;5001579;28;20109;-52
2022/02/01 05:16:24;;;;;;;29.45;4.25;;;3.10;99.90;;;;;;5004027;28;20026;-53
2022/02/01 05:19:01;;;;;;;37.42;5.60;;;3.10;99.90;;;;;;5002638;28;20045;-52
2022/02/01 05:21:26;;;;;;;33.03;5.13;;;3.10;99.90;;;;;;5006413;28;20034;-52
2022/02/01 05:23:54;;;;;;;35.42;4.93;;;3.10;99.90;;;;;;5003363;28;20083;-52
2022/02/01 05:26:23;;;;;;;31.65;4.97;;;3.10;99.90;;;;;;5005897;28;20116;-53
2022/02/01 05:28:49;;;;;;;26.77;3.95;;;3.20;99.90;;;;;;5001022;28;20034;-55
2022/02/01 05:31:14;;;;;;;34.42;4.90;;;3.10;99.90;;;;;;5010988;28;20103;-48
2022/02/01 05:33:40;;;;;;;29.10;4.15;;;3.10;99.90;;;;;;5010272;28;20120;-56
2022/02/01 05:36:07;;;;;;;29.83;4.90;;;3.10;99.90;;;;;;5009487;28;20029;-53
2022/02/01 05:38:34;;;;;;;49.60;7.78;;;3.20;99.90;;;;;;5010220;28;20348;-48
2022/02/01 05:41:00;;;;;;;43.58;8.63;;;3.20;99.90;;;;;;4975541;28;20026;-51
2022/02/01 05:43:26;;;;;;;35.30;6.82;;;3.20;99.90;;;;;;5010204;28;20028;-46
2022/02/01 05:45:54;;;;;;;31.55;5.65;;;3.20;99.90;;;;;;5008951;28;20132;-46
2022/02/01 05:48:20;;;;;;;32.25;4.93;;;3.10;99.90;;;;;;5007208;28;20441;-46
2022/02/01 05:50:50;;;;;;;44.70;5.50;;;3.10;99.90;;;;;;5003293;28;20129;-47
2022/02/01 05:53:17;;;;;;;29.75;4.88;;;3.10;99.90;;;;;;5010164;28;20077;-51
2022/02/01 05:55:43;;;;;;;22.73;4.68;;;3.10;99.90;;;;;;5008200;28;20080;-45
2022/02/01 05:58:10;;;;;;;34.05;4.35;;;3.10;99.90;;;;;;4988936;28;20531;-46
2022/02/01 06:00:35;;;;;;;30.10;4.63;;;3.10;99.90;;;;;;5007586;28;20053;-48
2022/02/01 06:03:01;;;;;;;35.40;6.10;;;3.10;99.90;;;;;;5010559;28;20124;-52
2022/02/01 06:05:28;;;;;;;25.35;5.60;;;3.10;99.90;;;;;;4999460;28;20034;-47
2022/02/01 06:07:54;;;;;;;32.25;4.47;;;3.10;99.90;;;;;;5008497;28;20395;-45
2022/02/01 06:10:20;;;;;;;24.88;3.53;;;3.10;99.90;;;;;;5007855;28;20091;-48
2022/02/01 06:12:48;;;;;;;32.55;3.95;;;3.10;99.90;;;;;;5012342;28;20022;-52
2022/02/01 06:15:19;;;;;;;37.80;5.07;;;3.20;99.90;;;;;;5005746;28;20431;-47
2022/02/01 06:17:45;;;;;;;23.73;3.60;;;3.20;99.90;;;;;;5008872;28;20045;-46
2022/02/01 06:20:12;;;;;;;28.63;3.50;;;3.20;99.90;;;;;;5003543;28;20018;-61
2022/02/01 06:22:39;;;;;;;29.75;5.43;;;3.20;99.90;;;;;;5009718;28;20030;-46
2022/02/01 06:25:06;;;;;;;13.30;3.75;;;3.20;99.90;;;;;;5011613;28;20038;-50
2022/02/01 06:27:32;;;;;;;29.60;4.28;;;3.20;99.90;;;;;;5012493;28;20037;-47
2022/02/01 06:29:58;;;;;;;30.30;4.97;;;3.20;99.90;;;;;;5012385;28;20121;-47
2022/02/01 06:32:34;;;;;;;23.90;3.58;;;3.20;99.90;;;;;;5009697;28;20030;-51
2022/02/01 06:35:00;;;;;;;33.72;3.72;;;3.30;99.90;;;;;;5009376;28;20233;-48
2022/02/01 06:37:25;;;;;;;18.10;3.72;;;3.20;99.90;;;;;;5008480;28;20040;-46
2022/02/01 06:39:51;;;;;;;25.17;4.00;;;3.20;99.90;;;;;;5009879;28;20143;-47
2022/02/01 06:42:17;;;;;;;40.33;3.50;;;3.20;99.90;;;;;;5008773;28;20052;-47
2022/02/01 06:44:43;;;;;;;23.35;3.72;;;3.20;99.90;;;;;;5007941;28;20029;-49
2022/02/01 06:47:09;;;;;;;31.90;4.38;;;3.20;99.90;;;;;;5008663;28;20481;-46
2022/02/01 06:49:35;;;;;;;31.73;3.72;;;3.20;99.90;;;;;;5001259;28;20051;-46
2022/02/01 06:52:03;;;;;;;35.03;3.40;;;3.20;99.90;;;;;;5008440;28;20030;-48
2022/02/01 06:54:29;;;;;;;33.15;3.67;;;3.30;99.90;;;;;;5007627;28;20033;-45
2022/02/01 06:56:55;;;;;;;36.40;4.78;;;3.20;99.90;;;;;;5009103;28;20350;-48
2022/02/01 06:59:21;;;;;;;25.02;3.85;;;3.70;99.90;;;;;;5009334;28;20029;-52
2022/02/01 07:01:47;;;;;;;39.30;4.72;;;3.60;99.90;;;;;;5008583;28;20117;-53
2022/02/01 07:04:12;;;;;;;35.28;4.50;;;3.60;99.90;;;;;;5006912;28;20025;-54
2022/02/01 07:06:38;;;;;;;23.27;3.28;;;3.70;99.90;;;;;;5000503;28;20061;-49
2022/02/01 07:09:04;;;;;;;23.00;3.25;;;3.70;99.90;;;;;;5008962;28;20038;-46
2022/02/01 07:11:30;;;;;;;28.23;3.85;;;3.70;99.90;;;;;;5007667;28;21091;-46
2022/02/01 07:13:56;;;;;;;20.55;3.28;;;3.70;99.90;;;;;;5009262;28;20133;-48
2022/02/01 07:16:23;;;;;;;28.48;3.33;;;3.80;99.90;;;;;;5002125;28;20033;-57
2022/02/01 07:18:49;;;;;;;21.80;3.00;;;3.80;99.90;;;;;;5006595;28;20060;-51
2022/02/01 07:21:16;;;;;;;22.40;3.20;;;3.80;99.90;;;;;;5002465;28;20022;-49
2022/02/01 07:23:42;;;;;;;35.40;4.50;;;3.90;99.90;;;;;;5006378;28;20034;-50
2022/02/01 07:26:09;;;;;;;26.25;4.55;;;3.80;99.90;;;;;;5001686;28;20022;-51
2022/02/01 07:28:35;;;;;;;21.48;4.15;;;3.80;99.90;;;;;;5008015;28;20057;-45
2022/02/01 07:31:01;;;;;;;15.57;2.70;;;3.70;99.90;;;;;;5009281;28;20022;-51
2022/02/01 07:33:28;;;;;;;19.20;3.42;;;3.60;99.90;;;;;;5006629;28;20030;-51
2022/02/01 07:35:54;;;;;;;27.30;3.60;;;3.60;99.90;;;;;;4998484;28;20042;-51
2022/02/01 07:38:25;;;;;;;28.45;2.90;;;3.50;99.90;;;;;;5002674;28;20113;-49
2022/02/01 07:40:56;;;;;;;26.70;3.40;;;3.50;99.90;;;;;;5007693;28;20035;-54
2022/02/01 07:43:25;;;;;;;18.88;3.05;;;3.50;99.90;;;;;;5007967;28;20459;-50
2022/02/01 07:45:52;;;;;;;26.23;3.85;;;3.50;99.90;;;;;;5001943;28;20112;-51
2022/02/01 07:48:18;;;;;;;20.80;3.85;;;3.50;99.90;;;;;;5007918;28;20034;-57
2022/02/01 07:50:44;;;;;;;27.08;4.63;;;3.50;99.90;;;;;;5007877;28;20026;-52
2022/02/01 07:53:11;;;;;;;21.08;4.05;;;3.70;99.90;;;;;;5010034;28;20511;-49
2022/02/01 07:55:38;;;;;;;35.75;5.68;;;3.80;99.90;;;;;;5011080;28;20054;-45
2022/02/01 07:58:04;;;;;;;20.20;3.22;;;3.80;99.90;;;;;;5011296;28;20475;-51
2022/02/01 08:00:30;;;;;;;27.52;3.83;;;3.80;99.90;;;;;;5012127;28;20034;-50
2022/02/01 08:02:56;;;;;;;22.55;3.63;;;3.70;99.90;;;;;;5008527;28;20593;-50
2022/02/01 08:05:29;;;;;;;19.33;3.60;;;3.70;99.90;;;;;;5048730;22;20102;-49
2022/02/01 08:07:54;;;;;;;27.08;4.70;;;3.70;99.90;;;;;;5049016;28;20026;-48
2022/02/01 08:10:21;;;;;;;21.80;3.20;;;3.60;99.90;;;;;;5050145;28;20043;-48
2022/02/01 08:21:01;;;;;;;26.70;3.70;;;3.70;99.90;;;;;;5047017;28;20021;-48
2022/02/01 08:23:27;;;;;;;23.02;3.10;;;3.70;99.90;;;;;;5045730;28;20112;-49
2022/02/01 08:25:53;;;;;;;20.05;2.70;;;3.70;99.90;;;;;;5044491;28;20116;-48
2022/02/01 08:28:21;;;;;;;21.10;3.22;;;3.70;99.90;;;;;;5039753;28;20029;-50
2022/02/01 08:30:50;;;;;;;22.75;3.72;;;3.70;99.90;;;;;;5038769;28;20097;-48
2022/02/01 08:33:15;;;;;;;26.13;3.42;;;3.80;99.90;;;;;;5047478;28;20116;-49
2022/02/01 08:35:41;;;;;;;24.33;3.50;;;3.80;99.90;;;;;;5047627;28;20120;-49
2022/02/01 08:38:07;;;;;;;26.85;3.50;;;3.80;99.90;;;;;;5053609;28;20108;-49
2022/02/01 08:40:32;;;;;;;18.90;3.17;;;3.80;99.90;;;;;;5045015;28;20034;-48
2022/02/01 08:42:58;;;;;;;22.08;3.58;;;3.80;99.90;;;;;;5051530;28;20071;-48
2022/02/01 08:45:25;;;;;;;25.02;3.38;;;3.80;99.90;;;;;;5053331;28;20029;-48
2022/02/01 08:47:53;;;;;;;15.15;2.53;;;3.70;99.90;;;;;;5053718;28;20037;-47
2022/02/01 08:50:23;;;;;;;28.40;3.92;;;3.70;99.90;;;;;;5063430;28;20035;-49
2022/02/01 08:52:50;;;;;;;17.00;3.10;;;3.80;99.90;;;;;;5052602;28;20203;-48
2022/02/01 08:56:02;;;;;;;24.33;3.78;;;3.80;99.90;;;;;;5047250;28;20036;-48
2022/02/01 08:58:07;;;;;;;25.05;3.70;;;3.80;99.90;;;;;;5042002;28;20390;-48
2022/02/01 09:00:33;;;;;;;24.73;3.60;;;3.90;99.90;;;;;;5053608;28;20107;-48
2022/02/01 09:03:03;;;;;;;23.95;3.47;;;3.90;99.90;;;;;;5052803;28;20526;-49
2022/02/01 09:05:30;;;;;;;20.00;4.07;;;3.90;99.90;;;;;;5052465;28;20094;-51
2022/02/01 09:07:58;;;;;;;19.05;3.88;;;4.00;99.90;;;;;;5035234;28;20525;-48
2022/02/01 09:10:24;;;;;;;25.00;4.30;;;4.00;99.90;;;;;;5044938;28;20033;-48
2022/02/01 09:12:50;;;;;;;33.58;5.22;;;4.00;99.90;;;;;;5047756;28;20063;-48
2022/02/01 09:15:16;;;;;;;20.80;4.05;;;4.00;99.90;;;;;;5050091;28;20086;-50
2022/02/01 09:17:45;;;;;;;18.35;4.28;;;4.10;99.90;;;;;;5058877;28;20037;-47
2022/02/01 09:20:11;;;;;;;20.85;4.03;;;4.10;99.90;;;;;;5052428;28;20025;-48
2022/02/01 09:22:37;;;;;;;25.38;3.72;;;4.20;99.90;;;;;;5052818;28;20029;-47
2022/02/01 09:25:03;;;;;;;21.17;3.97;;;4.20;99.90;;;;;;5052266;28;20032;-48
2022/02/01 09:27:29;;;;;;;29.17;4.93;;;4.20;99.90;;;;;;5051884;28;20033;-47
2022/02/01 09:29:55;;;;;;;28.30;5.45;;;4.20;99.90;;;;;;5049741;28;20037;-49
2022/02/01 09:32:23;;;;;;;20.73;4.18;;;4.20;99.90;;;;;;5041160;28;20026;-48
2022/02/01 09:34:48;;;;;;;26.50;5.28;;;4.20;99.90;;;;;;5045572;28;20037;-48
2022/02/01 09:37:14;;;;;;;19.90;4.55;;;4.20;99.90;;;;;;5049115;28;20099;-48
2022/02/01 09:39:40;;;;;;;19.38;5.68;;;4.20;99.90;;;;;;5047970;28;20044;-48
2022/02/01 09:42:05;;;;;;;27.15;6.40;;;4.20;99.90;;;;;;5043722;28;20041;-48
2022/02/01 09:44:31;;;;;;;25.65;6.30;;;4.30;99.90;;;;;;5051445;28;20033;-48
2022/02/01 09:46:56;;;;;;;35.97;9.00;;;4.20;99.90;;;;;;5041887;28;20043;-48
2022/02/01 09:49:24;;;;;;;31.27;8.00;;;4.20;99.90;;;;;;5042696;28;20041;-47
2022/02/01 09:51:59;;;;;;;28.50;8.38;;;4.20;99.90;;;;;;5043673;28;20113;-48
2022/02/01 09:54:28;;;;;;;26.80;8.10;;;4.10;99.90;;;;;;5050614;28;20048;-48
2022/02/01 09:56:55;;;;;;;25.27;7.45;;;4.00;99.90;;;;;;5049962;28;20431;-48
2022/02/01 09:59:32;;;;;;;21.73;7.30;;;4.00;99.90;;;;;;5042663;28;20156;-50
2022/02/01 10:02:09;;;;;;;34.58;9.00;;;3.90;99.90;;;;;;5051863;28;20133;-50
2022/02/01 10:04:36;;;;;;;31.40;9.23;;;3.90;99.90;;;;;;5052516;28;20016;-48
2022/02/01 10:07:08;;;;;;;25.02;8.85;;;3.90;99.90;;;;;;5051622;28;20115;-49
2022/02/01 10:09:34;;;;;;;;;;;3.90;99.90;;;;;;5052434;28;20032;-47
2022/02/01 10:11:59;;;;;;;19.77;7.47;;;3.90;99.90;;;;;;5052036;28;20250;-47
2022/02/01 10:14:35;;;;;;;21.63;8.57;;;3.90;99.90;;;;;;5033788;28;20379;-49
2022/02/01 10:17:07;;;;;;;24.33;8.30;;;3.90;99.90;;;;;;5051528;28;20109;-48
2022/02/01 10:19:32;;;;;;;18.17;6.75;;;3.90;99.90;;;;;;5043984;28;20044;-49
2022/02/01 10:22:01;;;;;;;21.73;7.82;;;3.80;99.90;;;;;;5052124;28;20033;-47
2022/02/01 10:24:33;;;;;;;21.88;8.00;;;3.90;99.90;;;;;;5048256;28;20044;-48
2022/02/01 10:27:15;;;;;;;22.67;7.13;;;3.80;99.90;;;;;;5051736;28;20056;-47
2022/02/01 10:30:17;;;;;;;17.95;7.65;;;3.90;99.90;;;;;;5052761;28;20111;-49
2022/02/01 10:38:00;;;;;;;19.88;6.80;;;3.80;99.90;;;;;;5041914;28;20017;-48
2022/02/01 10:40:55;;;;;;;18.70;6.50;;;3.80;99.90;;;;;;5039818;28;20053;-49
2022/02/01 10:43:31;;;;;;;20.33;7.28;;;3.80;99.90;;;;;;5033331;28;20033;-48
2022/02/01 10:46:07;;;;;;;13.60;6.30;;;3.80;99.90;;;;;;5056788;28;20024;-54
2022/02/01 10:48:33;;;;;;;26.45;6.50;;;3.80;99.90;;;;;;5064548;28;20017;-49
2022/02/01 10:51:04;;;;;;;20.85;6.43;;;3.80;99.90;;;;;;5051516;28;20469;-51
2022/02/01 10:53:30;;;;;;;24.40;7.57;;;3.90;99.90;;;;;;5042681;28;20022;-48
2022/02/01 10:55:57;;;;;;;14.27;6.25;;;3.80;99.90;;;;;;5040663;28;20127;-48
2022/02/01 10:58:23;;;;;;;20.30;6.97;;;3.80;99.90;;;;;;5049906;28;20564;-49
2022/02/01 11:00:48;;;;;;;18.13;6.57;;;3.90;99.90;;;;;;5044452;28;20128;-49
2022/02/01 11:03:15;;;;;;;19.70;7.57;;;3.90;99.90;;;;;;5045521;28;20461;-47
2022/02/01 11:05:49;;;;;;;17.48;7.03;;;4.00;99.90;;;;;;5050712;28;20450;-49
2022/02/01 11:08:18;;;;;;;24.23;6.63;;;4.00;99.90;;;;;;5051221;28;20056;-48
2022/02/01 11:10:49;;;;;;;15.38;6.32;;;3.90;99.90;;;;;;5051002;28;20475;-49
2022/02/01 11:13:15;;;;;;;12.85;6.45;;;3.90;99.90;;;;;;5051601;28;20540;-49
2022/02/01 11:16:02;;;;;;;17.58;6.30;;;3.90;99.90;;;;;;5050614;28;20033;-48
2022/02/01 11:18:29;;;;;;;11.50;5.57;;;4.00;99.90;;;;;;5051214;28;20025;-48
2022/02/01 11:21:09;;;;;;;26.50;9.57;;;4.00;99.90;;;;;;5051076;28;20021;-47
2022/02/01 11:24:09;;;;;;;16.17;5.63;;;4.00;99.90;;;;;;5033182;28;20025;-47
2022/02/01 11:26:50;;;;;;;14.55;5.28;;;4.10;99.90;;;;;;5051401;28;20447;-48
2022/02/01 11:31:57;;;;;;;7.15;4.05;;;4.10;99.90;;;;;;5055831;28;20025;-48
2022/02/01 11:34:31;;;;;;;22.25;7.38;;;4.20;99.90;;;;;;5055599;28;20438;-47
2022/02/01 11:37:10;;;;;;;8.63;4.45;;;4.20;99.90;;;;;;5055418;28;20029;-47
2022/02/01 11:39:52;;;;;;;11.02;5.38;;;4.20;99.90;;;;;;5055365;28;20033;-47
2022/02/01 11:42:19;;;;;;;13.80;5.97;;;4.30;99.90;;;;;;5055772;28;20365;-47
2022/02/01 11:44:45;;;;;;;14.52;6.18;;;4.20;99.90;;;;;;5056325;28;20032;-48
2022/02/01 11:47:21;;;;;;;11.68;6.20;;;4.30;99.90;;;;;;5057207;28;20029;-47
2022/02/01 11:50:00;;;;;;;10.13;5.97;;;4.30;99.90;;;;;;5056252;28;20040;-48
2022/02/01 11:52:28;;;;;;;12.93;5.97;;;4.40;99.90;;;;;;5066459;28;20036;-47
2022/02/01 11:55:08;;;;;;;12.40;6.75;;;4.30;99.90;;;;;;5055639;28;20064;-48
2022/02/01 11:57:34;;;;;;;13.80;7.00;;;4.40;99.90;;;;;;5054352;28;20087;-47
2022/02/01 12:00:08;;;;;;;11.68;6.93;;;4.40;99.90;;;;;;5045583;28;20018;-50
2022/02/01 12:02:41;;;;;;;15.00;7.38;;;4.50;99.90;;;;;;5033817;28;20076;-51
2022/02/01 12:05:15;;;;;;;12.85;7.68;;;4.50;99.90;;;;;;5047204;28;20060;-49
2022/02/01 12:08:07;;;;;;;13.27;7.97;;;4.50;99.90;;;;;;5035929;28;20070;-51
2022/02/01 12:10:49;;;;;;;14.98;8.75;;;4.60;99.90;;;;;;5052160;28;20082;-50
2022/02/01 12:13:23;;;;;;;12.60;8.23;;;4.60;99.90;;;;;;5044191;28;20120;-51
2022/02/01 12:15:52;;;;;;;13.05;8.63;;;4.70;99.90;;;;;;5049478;28;20041;-49
2022/02/01 12:18:36;;;;;;;16.85;10.20;;;4.70;99.90;;;;;;5046022;28;20020;-49
2022/02/01 12:21:24;;;;;;;14.35;8.52;;;4.70;99.90;;;;;;5051620;28;20361;-50
2022/02/01 12:23:51;;;;;;;13.68;9.93;;;4.80;99.90;;;;;;5041126;28;20029;-50
2022/02/01 12:26:18;;;;;;;15.38;9.35;;;4.80;99.90;;;;;;5045670;28;20025;-52
2022/02/01 12:28:44;;;;;;;15.48;10.25;;;4.90;99.90;;;;;;5044758;28;20075;-53
2022/02/01 12:31:12;;;;;;;15.13;9.73;;;4.90;99.90;;;;;;5052527;28;20017;-53
2022/02/01 12:33:53;;;;;;;15.48;9.15;;;5.00;99.90;;;;;;5052307;28;20032;-52
2022/02/01 12:36:25;;;;;;;12.65;8.80;;;5.00;99.90;;;;;;5051874;28;20563;-52
2022/02/01 12:39:20;;;;;;;10.85;7.47;;;5.10;99.90;;;;;;5050990;28;20453;-51
2022/02/01 12:46:56;;;;;;;7.90;4.93;;;5.30;99.90;;;;;;5037499;28;20031;-51
2022/02/01 12:49:38;;;;;;;9.07;5.05;;;5.30;99.90;;;;;;5044178;28;20348;-51
2022/02/01 12:52:24;;;;;;;6.47;4.68;;;5.40;99.90;;;;;;5049523;28;20119;-52
2022/02/01 12:55:19;;;;;;;6.93;4.28;;;5.40;99.90;;;;;;5041949;28;20097;-53
2022/02/01 12:57:45;;;;;;;4.60;3.90;;;5.50;99.90;;;;;;5042707;28;20041;-52
2022/02/01 13:00:16;;;;;;;5.70;3.92;;;5.50;99.90;;;;;;5048097;28;20116;-51
2022/02/01 13:02:43;;;;;;;9.68;4.22;;;5.60;99.90;;;;;;5052032;28;20029;-51
2022/02/01 13:05:15;;;;;;;8.05;3.97;;;5.60;99.90;;;;;;5044424;28;20410;-50
2022/02/01 13:21:23;;;;;;;8.45;3.45;;;5.90;99.90;;;;;;5057721;28;20119;-51
2022/02/01 13:23:50;;;;;;;13.88;3.72;;;6.00;99.90;;;;;;5043529;28;20124;-53
2022/02/01 13:26:17;;;;;;;8.90;3.22;;;6.00;99.90;;;;;;5050166;28;20056;-51
2022/02/01 13:28:55;;;;;;;14.27;3.50;;;6.10;99.90;;;;;;5046043;28;20105;-51
2022/02/01 13:31:25;;;;;;;11.32;4.22;;;6.20;99.90;;;;;;5046300;28;20025;-51
2022/02/01 13:33:57;;;;;;;13.13;4.50;;;6.20;99.90;;;;;;5048811;28;20056;-50
2022/02/01 13:36:23;;;;;;;7.50;3.73;;;6.20;99.90;;;;;;5049571;28;20036;-50
2022/02/01 13:38:52;;;;;;;7.50;3.67;;;6.20;99.90;;;;;;5051204;28;20518;-52
2022/02/01 13:41:19;;;;;;;15.70;5.22;;;6.30;99.90;;;;;;5044618;28;20056;-50
2022/02/01 13:43:50;;;;;;;14.60;5.07;;;6.30;99.90;;;;;;5051925;28;20025;-51
2022/02/01 13:46:24;;;;;;;15.70;5.07;;;6.40;99.90;;;;;;5035065;28;20111;-52
2022/02/01 13:49:06;;;;;;;15.57;5.68;;;6.40;99.90;;;;;;5048354;28;20047;-53
2022/02/01 13:51:47;;;;;;;16.33;5.38;;;6.40;99.90;;;;;;5042545;28;20071;-56
2022/02/01 13:54:13;;;;;;;20.60;5.93;;;6.50;99.90;;;;;;5020394;28;20042;-53
2022/02/01 13:56:44;;;;;;;24.05;6.38;;;6.50;99.90;;;;;;5040892;28;20072;-55
2022/02/01 13:59:12;;;;;;;18.45;6.40;;;6.50;99.90;;;;;;5044189;28;20072;-57
2022/02/01 14:01:42;;;;;;;20.30;6.10;;;6.50;99.90;;;;;;5041172;28;20364;-56
2022/02/01 14:04:24;;;;;;;18.92;4.57;;;6.50;99.90;;;;;;5045816;28;20154;-55
2022/02/01 14:07:59;;;;;;;30.55;5.57;;;6.50;99.90;;;;;;5080037;22;20514;-45
2022/02/01 14:29:07;;;;;;;29.58;4.47;;;6.90;99.90;;;;;;4977412;28;20054;-53
2022/02/01 14:34:19;;;;;;;36.75;5.28;;;6.90;99.90;;;;;;5051168;28;20036;-52
2022/02/01 14:36:48;;;;;;;22.60;4.45;;;7.00;99.90;;;;;;5050913;28;20033;-52
2022/02/01 14:44:50;;;;;;;21.00;4.13;;;7.00;99.90;;;;;;5042409;28;20047;-45
2022/02/01 14:47:18;;;;;;;45.65;5.93;;;7.10;99.90;;;;;;5047365;28;20029;-44
2022/02/01 14:49:45;;;;;;;34.78;5.55;;;7.10;99.90;;;;;;5030842;28;20362;-45
2022/02/01 14:52:12;;;;;;;28.73;4.65;;;7.10;99.90;;;;;;5045750;28;20063;-46
2022/02/01 14:54:50;;;;;;;36.78;5.97;;;7.20;99.90;;;;;;5053698;28;20079;-48
2022/02/01 15:13:48;;;;;;;32.70;4.55;;;7.30;99.90;;;;;;5046614;28;20163;-45
2022/02/01 15:16:13;;;;;;;39.47;5.57;;;7.20;99.90;;;;;;5043984;28;20521;-45
2022/02/01 15:18:39;;;;;;;37.10;6.15;;;7.20;99.90;;;;;;5057180;28;20136;-45
2022/02/01 15:21:05;;;;;;;31.15;5.22;;;7.20;99.90;;;;;;5050820;28;20025;-45
2022/02/01 15:23:30;;;;;;;22.35;3.75;;;7.20;99.90;;;;;;5047296;28;20033;-50
2022/02/01 15:25:57;;;;;;;26.20;3.60;;;7.20;99.90;;;;;;5041998;28;20112;-49
2022/02/01 15:28:23;;;;;;;23.10;3.80;;;7.20;99.90;;;;;;5057152;28;20595;-50
2022/02/01 15:30:49;;;;;;;19.25;3.58;;;7.20;99.90;;;;;;5040573;28;20487;-46
2022/02/01 15:33:17;;;;;;;15.20;3.15;;;7.10;99.90;;;;;;5048140;28;20041;-47
2022/02/01 15:35:44;;;;;;;25.23;4.25;;;7.10;99.90;;;;;;5042125;28;20398;-48
2022/02/01 15:38:12;;;;;;;28.15;4.97;;;7.00;99.90;;;;;;5045354;28;20021;-45
2022/02/01 15:59:11;;;;;;;28.88;5.40;;;7.00;99.90;;;;;;5043101;28;20112;-52
2022/02/01 16:01:43;;;;;;;28.67;4.78;;;7.10;99.90;;;;;;5016297;28;20389;-46
2022/02/01 16:04:10;;;;;;;39.15;5.38;;;7.10;99.90;;;;;;5038954;28;20599;-47